sensor_id;sensor_type;location;lat;lon;timestamp;P1;durP1;ratioP1;P2;durP2;ratioP2
61499;SDS011;47361;49.996;19.918;2023-07-02T00:01:27;18.1;;;13.5;;
61499;SDS011;47361;49.996;19.918;2023-07-02T00:02:27;18.4;;;14.9;;
61499;SDS011;47361;49.996;19.918;2023-07-02T00:10:27;16.6;;;13.7;;
61499;SDS011;47361;49.996;19.918;2023-07-02T00:13:27;18.5;;;13.5;;
61499;SDS011;47361;49.996;19.918;2023-07-02T00:19:27;16.9;;;13.4;;
61499;SDS011;47361;49.996;19.918;2023-07-02T00:20:27;16.9;;;13.4;;
61499;SDS011;47361;49.996;19.918;2023-07-02T00:23:27;18.4;;;14.7;;
61499;SDS011;47361;49.996;19.918;2023-07-02T00:26:27;18.4;;;14.7;;
61499;SDS011;47361;49.996;19.918;2023-07-02T00:27:27;16.8;;;14.4;;
61499;SDS011;47361;49.996;19.918;2023-07-02T00:33:27;19.6;;;14.6;;
61499;SDS011;47361;49.996;19.918;2023-07-02T00:38:27;18.7;;;14.1;;
61499;SDS011;47361;49.996;19.918;2023-07-02T00:40:27;18.7;;;14.1;;
61499;SDS011;47361;49.996;19.918;2023-07-02T00:44:27;18.1;;;14.1;;
61499;SDS011;47361;49.996;19.918;2023-07-02T00:45:27;18.1;;;14.1;;
61499;SDS011;47361;49.996;19.918;2023-07-02T00:49:27;17.5;;;14.1;;
61499;SDS011;47361;49.996;19.918;2023-07-02T00:52:28;18.7;;;14.0;;
61499;SDS011;47361;49.996;19.918;2023-07-02T00:56:27;18.7;;;14.0;;
61499;SDS011;47361;49.996;19.918;2023-07-02T00:57:27;16.5;;;13.3;;
61499;SDS011;47361;49.996;19.918;2023-07-02T00:58:27;16.5;;;13.3;;
61499;SDS011;47361;49.996;19.918;2023-07-02T01:00:27;16.5;;;13.3;;
61499;SDS011;47361;49.996;19.918;2023-07-02T01:07:27;17.1;;;13.6;;
61499;SDS011;47361;49.996;19.918;2023-07-02T01:09:28;17.1;;;13.6;;
61499;SDS011;47361;49.996;19.918;2023-07-02T01:14:31;16.1;;;12.9;;
61499;SDS011;47361;49.996;19.918;2023-07-02T01:16:28;16.1;;;12.9;;
61499;SDS011;47361;49.996;19.918;2023-07-02T01:20:27;16.9;;;13.7;;
61499;SDS011;47361;49.996;19.918;2023-07-02T01:22:28;17.8;;;13.6;;
61499;SDS011;47361;49.996;19.918;2023-07-02T01:24:27;17.8;;;13.6;;
61499;SDS011;47361;49.996;19.918;2023-07-02T01:27:28;17.5;;;13.5;;
61499;SDS011;47361;49.996;19.918;2023-07-02T01:37:27;17.4;;;13.2;;
61499;SDS011;47361;49.996;19.918;2023-07-02T01:43:27;16.1;;;11.9;;
61499;SDS011;47361;49.996;19.918;2023-07-02T01:44:27;16.1;;;11.9;;
61499;SDS011;47361;49.996;19.918;2023-07-02T01:51:27;16.3;;;11.7;;
61499;SDS011;47361;49.996;19.918;2023-07-02T01:52:27;15.4;;;12.8;;
61499;SDS011;47361;49.996;19.918;2023-07-02T01:56:28;15.4;;;12.8;;
61499;SDS011;47361;49.996;19.918;2023-07-02T01:57:27;14.6;;;12.0;;
61499;SDS011;47361;49.996;19.918;2023-07-02T02:02:27;17.5;;;13.1;;
61499;SDS011;47361;49.996;19.918;2023-07-02T02:06:27;17.5;;;13.1;;
61499;SDS011;47361;49.996;19.918;2023-07-02T02:07:27;14.7;;;12.6;;
61499;SDS011;47361;49.996;19.918;2023-07-02T02:10:27;14.7;;;12.6;;
61499;SDS011;47361;49.996;19.918;2023-07-02T02:12:27;15.4;;;11.9;;
61499;SDS011;47361;49.996;19.918;2023-07-02T02:15:27;15.4;;;11.9;;
61499;SDS011;47361;49.996;19.918;2023-07-02T02:17:27;15.9;;;12.1;;
61499;SDS011;47361;49.996;19.918;2023-07-02T02:22:27;15.6;;;12.6;;
61499;SDS011;47361;49.996;19.918;2023-07-02T02:24:27;15.6;;;12.6;;
61499;SDS011;47361;49.996;19.918;2023-07-02T02:27:27;16.0;;;13.0;;
61499;SDS011;47361;49.996;19.918;2023-07-02T02:31:27;16.0;;;13.0;;
61499;SDS011;47361;49.996;19.918;2023-07-02T02:32:27;14.2;;;11.7;;
61499;SDS011;47361;49.996;19.918;2023-07-02T02:42:29;15.9;;;11.9;;
61499;SDS011;47361;49.996;19.918;2023-07-02T02:45:27;15.9;;;11.9;;
61499;SDS011;47361;49.996;19.918;2023-07-02T02:47:27;16.2;;;12.4;;
61499;SDS011;47361;49.996;19.918;2023-07-02T02:51:27;16.2;;;12.4;;
61499;SDS011;47361;49.996;19.918;2023-07-02T02:52:27;17.7;;;11.0;;
61499;SDS011;47361;49.996;19.918;2023-07-02T03:02:28;14.8;;;11.8;;
61499;SDS011;47361;49.996;19.918;2023-07-02T03:04:27;14.8;;;11.8;;
61499;SDS011;47361;49.996;19.918;2023-07-02T03:07:27;14.3;;;10.9;;
61499;SDS011;47361;49.996;19.918;2023-07-02T03:11:27;14.3;;;10.9;;
61499;SDS011;47361;49.996;19.918;2023-07-02T03:12:27;14.4;;;11.2;;
61499;SDS011;47361;49.996;19.918;2023-07-02T03:18:27;15.0;;;11.2;;
61499;SDS011;47361;49.996;19.918;2023-07-02T03:19:27;15.0;;;11.2;;
61499;SDS011;47361;49.996;19.918;2023-07-02T03:21:28;15.0;;;11.2;;
61499;SDS011;47361;49.996;19.918;2023-07-02T03:22:27;15.3;;;11.5;;
61499;SDS011;47361;49.996;19.918;2023-07-02T03:24:27;15.3;;;11.5;;
61499;SDS011;47361;49.996;19.918;2023-07-02T03:27:27;15.2;;;10.8;;
61499;SDS011;47361;49.996;19.918;2023-07-02T03:29:28;15.2;;;10.8;;
61499;SDS011;47361;49.996;19.918;2023-07-02T03:36:27;15.4;;;11.2;;
61499;SDS011;47361;49.996;19.918;2023-07-02T03:37:27;16.4;;;10.5;;
61499;SDS011;47361;49.996;19.918;2023-07-02T03:39:27;16.4;;;10.5;;
61499;SDS011;47361;49.996;19.918;2023-07-02T03:42:28;15.9;;;11.4;;
61499;SDS011;47361;49.996;19.918;2023-07-02T03:52:27;15.5;;;10.3;;
61499;SDS011;47361;49.996;19.918;2023-07-02T03:55:27;15.5;;;10.3;;
61499;SDS011;47361;49.996;19.918;2023-07-02T03:57:28;13.2;;;11.5;;
61499;SDS011;47361;49.996;19.918;2023-07-02T03:58:27;13.2;;;11.5;;
61499;SDS011;47361;49.996;19.918;2023-07-02T04:02:27;13.9;;;10.8;;
61499;SDS011;47361;49.996;19.918;2023-07-02T04:06:27;13.9;;;10.8;;
61499;SDS011;47361;49.996;19.918;2023-07-02T04:07:27;13.6;;;11.4;;
61499;SDS011;47361;49.996;19.918;2023-07-02T04:09:27;13.6;;;11.4;;
61499;SDS011;47361;49.996;19.918;2023-07-02T04:12:28;14.2;;;10.8;;
61499;SDS011;47361;49.996;19.918;2023-07-02T04:14:28;14.2;;;10.8;;
61499;SDS011;47361;49.996;19.918;2023-07-02T04:17:27;13.6;;;10.6;;
61499;SDS011;47361;49.996;19.918;2023-07-02T04:19:27;13.6;;;10.6;;
61499;SDS011;47361;49.996;19.918;2023-07-02T04:22:27;14.2;;;11.2;;
61499;SDS011;47361;49.996;19.918;2023-07-02T04:23:27;14.2;;;11.2;;
61499;SDS011;47361;49.996;19.918;2023-07-02T04:26:27;14.2;;;11.2;;
61499;SDS011;47361;49.996;19.918;2023-07-02T04:27:27;12.5;;;10.1;;
61499;SDS011;47361;49.996;19.918;2023-07-02T04:29:27;12.5;;;10.1;;
61499;SDS011;47361;49.996;19.918;2023-07-02T04:30:27;12.5;;;10.1;;
61499;SDS011;47361;49.996;19.918;2023-07-02T04:36:27;14.5;;;10.3;;
61499;SDS011;47361;49.996;19.918;2023-07-02T04:37:27;11.6;;;9.7;;
61499;SDS011;47361;49.996;19.918;2023-07-02T04:39:27;11.6;;;9.7;;
61499;SDS011;47361;49.996;19.918;2023-07-02T04:44:27;12.3;;;9.8;;
61499;SDS011;47361;49.996;19.918;2023-07-02T04:56:27;12.3;;;9.7;;
61499;SDS011;47361;49.996;19.918;2023-07-02T04:59:28;9.7;;;7.8;;
61499;SDS011;47361;49.996;19.918;2023-07-02T05:02:27;11.9;;;9.9;;
61499;SDS011;47361;49.996;19.918;2023-07-02T05:03:27;11.9;;;9.9;;
61499;SDS011;47361;49.996;19.918;2023-07-02T05:06:27;11.9;;;9.9;;
61499;SDS011;47361;49.996;19.918;2023-07-02T05:07:27;12.4;;;8.4;;
61499;SDS011;47361;49.996;19.918;2023-07-02T05:10:28;12.4;;;8.4;;
61499;SDS011;47361;49.996;19.918;2023-07-02T05:12:28;13.4;;;9.3;;
61499;SDS011;47361;49.996;19.918;2023-07-02T05:14:27;13.4;;;9.3;;
61499;SDS011;47361;49.996;19.918;2023-07-02T05:17:27;10.2;;;6.7;;
61499;SDS011;47361;49.996;19.918;2023-07-02T05:20:28;10.2;;;6.7;;
61499;SDS011;47361;49.996;19.918;2023-07-02T05:22:27;10.3;;;7.7;;
61499;SDS011;47361;49.996;19.918;2023-07-02T05:27:27;13.9;;;8.1;;
61499;SDS011;47361;49.996;19.918;2023-07-02T05:30:27;13.9;;;8.1;;
61499;SDS011;47361;49.996;19.918;2023-07-02T05:32:28;10.7;;;8.1;;
61499;SDS011;47361;49.996;19.918;2023-07-02T05:36:27;9.7;;;7.0;;
61499;SDS011;47361;49.996;19.918;2023-07-02T05:37:27;9.7;;;7.0;;
61499;SDS011;47361;49.996;19.918;2023-07-02T05:47:28;8.5;;;6.5;;
61499;SDS011;47361;49.996;19.918;2023-07-02T05:49:28;8.5;;;6.5;;
61499;SDS011;47361;49.996;19.918;2023-07-02T05:56:27;8.1;;;6.0;;
61499;SDS011;47361;49.996;19.918;2023-07-02T06:02:28;8.4;;;5.7;;
61499;SDS011;47361;49.996;19.918;2023-07-02T06:03:27;8.4;;;5.7;;
61499;SDS011;47361;49.996;19.918;2023-07-02T06:08:27;8.7;;;6.8;;
61499;SDS011;47361;49.996;19.918;2023-07-02T06:10:27;8.7;;;6.8;;
61499;SDS011;47361;49.996;19.918;2023-07-02T06:12:28;9.9;;;7.0;;
61499;SDS011;47361;49.996;19.918;2023-07-02T06:13:28;9.9;;;7.0;;
61499;SDS011;47361;49.996;19.918;2023-07-02T06:15:27;9.9;;;7.0;;
61499;SDS011;47361;49.996;19.918;2023-07-02T06:17:27;9.1;;;6.7;;
61499;SDS011;47361;49.996;19.918;2023-07-02T06:18:27;9.1;;;6.7;;
61499;SDS011;47361;49.996;19.918;2023-07-02T06:20:27;9.1;;;6.7;;
61499;SDS011;47361;49.996;19.918;2023-07-02T06:22:27;7.4;;;6.2;;
61499;SDS011;47361;49.996;19.918;2023-07-02T06:24:28;7.4;;;6.2;;
61499;SDS011;47361;49.996;19.918;2023-07-02T06:25:27;7.4;;;6.2;;
61499;SDS011;47361;49.996;19.918;2023-07-02T06:32:27;7.3;;;5.3;;
61499;SDS011;47361;49.996;19.918;2023-07-02T06:35:28;7.3;;;5.3;;
61499;SDS011;47361;49.996;19.918;2023-07-02T06:36:28;7.4;;;5.3;;
61499;SDS011;47361;49.996;19.918;2023-07-02T06:42:27;7.1;;;5.1;;
61499;SDS011;47361;49.996;19.918;2023-07-02T06:43:27;7.1;;;5.1;;
61499;SDS011;47361;49.996;19.918;2023-07-02T06:46:28;7.2;;;4.9;;
61499;SDS011;47361;49.996;19.918;2023-07-02T06:47:27;7.2;;;4.9;;
61499;SDS011;47361;49.996;19.918;2023-07-02T06:48:27;7.2;;;4.9;;
61499;SDS011;47361;49.996;19.918;2023-07-02T06:49:27;7.2;;;4.9;;
61499;SDS011;47361;49.996;19.918;2023-07-02T06:54:28;6.9;;;4.5;;
61499;SDS011;47361;49.996;19.918;2023-07-02T06:57:28;6.8;;;4.5;;
61499;SDS011;47361;49.996;19.918;2023-07-02T06:58:27;6.8;;;4.5;;
61499;SDS011;47361;49.996;19.918;2023-07-02T07:00:30;6.8;;;4.5;;
61499;SDS011;47361;49.996;19.918;2023-07-02T07:02:27;9.5;;;4.5;;
61499;SDS011;47361;49.996;19.918;2023-07-02T07:03:28;9.5;;;4.5;;
61499;SDS011;47361;49.996;19.918;2023-07-02T07:08:28;6.0;;;3.9;;
61499;SDS011;47361;49.996;19.918;2023-07-02T07:09:28;6.0;;;3.9;;
61499;SDS011;47361;49.996;19.918;2023-07-02T07:10:28;6.0;;;3.9;;
61499;SDS011;47361;49.996;19.918;2023-07-02T07:15:31;5.7;;;4.2;;
61499;SDS011;47361;49.996;19.918;2023-07-02T07:16:28;7.1;;;3.9;;
61499;SDS011;47361;49.996;19.918;2023-07-02T07:17:27;7.1;;;3.9;;
61499;SDS011;47361;49.996;19.918;2023-07-02T07:18:27;7.1;;;3.9;;
61499;SDS011;47361;49.996;19.918;2023-07-02T07:20:28;7.1;;;3.9;;
61499;SDS011;47361;49.996;19.918;2023-07-02T07:21:27;6.6;;;4.0;;
61499;SDS011;47361;49.996;19.918;2023-07-02T07:22:28;6.6;;;4.0;;
61499;SDS011;47361;49.996;19.918;2023-07-02T07:23:28;6.6;;;4.0;;
61499;SDS011;47361;49.996;19.918;2023-07-02T07:24:27;6.6;;;4.0;;
61499;SDS011;47361;49.996;19.918;2023-07-02T07:25:28;6.6;;;4.0;;
61499;SDS011;47361;49.996;19.918;2023-07-02T07:28:28;5.5;;;3.9;;
61499;SDS011;47361;49.996;19.918;2023-07-02T07:31:28;5.2;;;4.0;;
61499;SDS011;47361;49.996;19.918;2023-07-02T07:33:28;5.2;;;4.0;;
61499;SDS011;47361;49.996;19.918;2023-07-02T07:36:27;5.5;;;3.9;;
61499;SDS011;47361;49.996;19.918;2023-07-02T07:39:28;5.5;;;3.9;;
61499;SDS011;47361;49.996;19.918;2023-07-02T07:41:28;6.4;;;4.1;;
61499;SDS011;47361;49.996;19.918;2023-07-02T07:43:28;6.4;;;4.1;;
61499;SDS011;47361;49.996;19.918;2023-07-02T07:45:28;6.4;;;4.1;;
61499;SDS011;47361;49.996;19.918;2023-07-02T07:46:28;6.3;;;4.0;;
61499;SDS011;47361;49.996;19.918;2023-07-02T07:47:28;6.3;;;4.0;;
61499;SDS011;47361;49.996;19.918;2023-07-02T07:52:28;7.0;;;4.3;;
61499;SDS011;47361;49.996;19.918;2023-07-02T07:55:28;7.0;;;4.3;;
61499;SDS011;47361;49.996;19.918;2023-07-02T08:00:28;7.5;;;4.2;;
61499;SDS011;47361;49.996;19.918;2023-07-02T08:04:28;5.3;;;3.7;;
61499;SDS011;47361;49.996;19.918;2023-07-02T08:14:28;4.3;;;3.6;;
61499;SDS011;47361;49.996;19.918;2023-07-02T08:16:28;5.5;;;3.8;;
61499;SDS011;47361;49.996;19.918;2023-07-02T08:21:28;7.5;;;4.2;;
61499;SDS011;47361;49.996;19.918;2023-07-02T08:26:28;6.1;;;3.9;;
61499;SDS011;47361;49.996;19.918;2023-07-02T08:27:28;6.1;;;3.9;;
61499;SDS011;47361;49.996;19.918;2023-07-02T08:31:28;5.8;;;4.0;;
61499;SDS011;47361;49.996;19.918;2023-07-02T08:32:28;5.8;;;4.0;;
61499;SDS011;47361;49.996;19.918;2023-07-02T08:33:28;5.8;;;4.0;;
61499;SDS011;47361;49.996;19.918;2023-07-02T08:35:28;5.8;;;4.0;;
61499;SDS011;47361;49.996;19.918;2023-07-02T08:37:28;5.6;;;4.3;;
61499;SDS011;47361;49.996;19.918;2023-07-02T08:40:28;5.6;;;4.3;;
61499;SDS011;47361;49.996;19.918;2023-07-02T08:42:28;5.9;;;4.1;;
61499;SDS011;47361;49.996;19.918;2023-07-02T08:43:28;5.9;;;4.1;;
61499;SDS011;47361;49.996;19.918;2023-07-02T08:48:28;6.6;;;4.1;;
61499;SDS011;47361;49.996;19.918;2023-07-02T08:49:28;6.6;;;4.1;;
61499;SDS011;47361;49.996;19.918;2023-07-02T08:50:28;6.6;;;4.1;;
61499;SDS011;47361;49.996;19.918;2023-07-02T08:53:28;7.2;;;4.0;;
61499;SDS011;47361;49.996;19.918;2023-07-02T08:56:28;7.0;;;4.4;;
61499;SDS011;47361;49.996;19.918;2023-07-02T08:58:28;7.0;;;4.4;;
61499;SDS011;47361;49.996;19.918;2023-07-02T09:00:28;7.0;;;4.4;;
61499;SDS011;47361;49.996;19.918;2023-07-02T09:02:31;4.5;;;3.9;;
61499;SDS011;47361;49.996;19.918;2023-07-02T09:05:28;4.5;;;3.9;;
61499;SDS011;47361;49.996;19.918;2023-07-02T09:09:28;5.2;;;3.2;;
61499;SDS011;47361;49.996;19.918;2023-07-02T09:10:28;5.2;;;3.2;;
61499;SDS011;47361;49.996;19.918;2023-07-02T09:14:29;3.8;;;3.1;;
61499;SDS011;47361;49.996;19.918;2023-07-02T09:15:34;3.8;;;3.1;;
61499;SDS011;47361;49.996;19.918;2023-07-02T09:16:29;3.4;;;2.8;;
61499;SDS011;47361;49.996;19.918;2023-07-02T09:17:29;3.4;;;2.8;;
61499;SDS011;47361;49.996;19.918;2023-07-02T09:18:28;3.4;;;2.8;;
61499;SDS011;47361;49.996;19.918;2023-07-02T09:21:37;4.1;;;3.2;;
61499;SDS011;47361;49.996;19.918;2023-07-02T09:23:34;4.1;;;3.2;;
61499;SDS011;47361;49.996;19.918;2023-07-02T09:28:28;4.2;;;2.9;;
61499;SDS011;47361;49.996;19.918;2023-07-02T09:30:28;4.2;;;2.9;;
61499;SDS011;47361;49.996;19.918;2023-07-02T09:31:28;5.6;;;2.9;;
61499;SDS011;47361;49.996;19.918;2023-07-02T09:32:28;5.6;;;2.9;;
61499;SDS011;47361;49.996;19.918;2023-07-02T09:33:28;5.6;;;2.9;;
61499;SDS011;47361;49.996;19.918;2023-07-02T09:35:28;5.6;;;2.9;;
61499;SDS011;47361;49.996;19.918;2023-07-02T09:37:28;7.1;;;3.3;;
61499;SDS011;47361;49.996;19.918;2023-07-02T09:39:29;7.1;;;3.3;;
61499;SDS011;47361;49.996;19.918;2023-07-02T09:40:28;7.1;;;3.3;;
61499;SDS011;47361;49.996;19.918;2023-07-02T09:41:28;5.7;;;3.3;;
61499;SDS011;47361;49.996;19.918;2023-07-02T09:42:28;5.7;;;3.3;;
61499;SDS011;47361;49.996;19.918;2023-07-02T09:45:28;5.7;;;3.3;;
61499;SDS011;47361;49.996;19.918;2023-07-02T09:51:28;6.0;;;3.2;;
61499;SDS011;47361;49.996;19.918;2023-07-02T09:55:28;6.0;;;3.2;;
61499;SDS011;47361;49.996;19.918;2023-07-02T09:56:28;6.4;;;3.3;;
61499;SDS011;47361;49.996;19.918;2023-07-02T09:57:28;6.4;;;3.3;;
61499;SDS011;47361;49.996;19.918;2023-07-02T10:01:28;7.1;;;3.8;;
61499;SDS011;47361;49.996;19.918;2023-07-02T10:03:29;7.1;;;3.8;;
61499;SDS011;47361;49.996;19.918;2023-07-02T10:06:28;4.0;;;3.1;;
61499;SDS011;47361;49.996;19.918;2023-07-02T10:07:29;4.0;;;3.1;;
61499;SDS011;47361;49.996;19.918;2023-07-02T10:08:28;4.0;;;3.1;;
61499;SDS011;47361;49.996;19.918;2023-07-02T10:09:38;4.0;;;3.1;;
61499;SDS011;47361;49.996;19.918;2023-07-02T10:11:33;3.8;;;2.2;;
61499;SDS011;47361;49.996;19.918;2023-07-02T10:12:29;3.8;;;2.2;;
61499;SDS011;47361;49.996;19.918;2023-07-02T10:14:41;3.8;;;2.2;;
61499;SDS011;47361;49.996;19.918;2023-07-02T10:16:28;4.1;;;2.3;;
61499;SDS011;47361;49.996;19.918;2023-07-02T10:18:28;4.1;;;2.3;;
61499;SDS011;47361;49.996;19.918;2023-07-02T10:20:32;4.1;;;2.3;;
61499;SDS011;47361;49.996;19.918;2023-07-02T10:21:28;3.8;;;2.6;;
61499;SDS011;47361;49.996;19.918;2023-07-02T10:22:28;3.8;;;2.6;;
61499;SDS011;47361;49.996;19.918;2023-07-02T10:23:33;3.8;;;2.6;;
61499;SDS011;47361;49.996;19.918;2023-07-02T10:26:28;3.3;;;2.1;;
61499;SDS011;47361;49.996;19.918;2023-07-02T10:29:28;3.3;;;2.1;;
61499;SDS011;47361;49.996;19.918;2023-07-02T10:31:28;3.6;;;2.4;;
61499;SDS011;47361;49.996;19.918;2023-07-02T10:32:28;3.6;;;2.4;;
61499;SDS011;47361;49.996;19.918;2023-07-02T10:33:28;3.6;;;2.4;;
61499;SDS011;47361;49.996;19.918;2023-07-02T10:35:32;3.6;;;2.4;;
61499;SDS011;47361;49.996;19.918;2023-07-02T10:36:28;4.3;;;3.3;;
61499;SDS011;47361;49.996;19.918;2023-07-02T10:41:29;3.6;;;2.7;;
61499;SDS011;47361;49.996;19.918;2023-07-02T10:43:29;3.6;;;2.7;;
61499;SDS011;47361;49.996;19.918;2023-07-02T10:46:28;5.0;;;3.2;;
61499;SDS011;47361;49.996;19.918;2023-07-02T10:49:32;5.0;;;3.2;;
61499;SDS011;47361;49.996;19.918;2023-07-02T10:50:28;5.0;;;3.2;;
61499;SDS011;47361;49.996;19.918;2023-07-02T10:51:28;5.7;;;3.7;;
61499;SDS011;47361;49.996;19.918;2023-07-02T10:52:36;5.7;;;3.7;;
61499;SDS011;47361;49.996;19.918;2023-07-02T10:53:28;5.7;;;3.7;;
61499;SDS011;47361;49.996;19.918;2023-07-02T10:54:38;5.7;;;3.7;;
61499;SDS011;47361;49.996;19.918;2023-07-02T10:57:28;4.0;;;2.8;;
61499;SDS011;47361;49.996;19.918;2023-07-02T10:58:28;4.0;;;2.8;;
61499;SDS011;47361;49.996;19.918;2023-07-02T10:59:28;4.0;;;2.8;;
61499;SDS011;47361;49.996;19.918;2023-07-02T11:01:29;3.9;;;2.5;;
61499;SDS011;47361;49.996;19.918;2023-07-02T11:02:33;3.9;;;2.5;;
61499;SDS011;47361;49.996;19.918;2023-07-02T11:05:28;3.9;;;2.5;;
61499;SDS011;47361;49.996;19.918;2023-07-02T11:06:29;3.7;;;2.7;;
61499;SDS011;47361;49.996;19.918;2023-07-02T11:07:28;3.7;;;2.7;;
61499;SDS011;47361;49.996;19.918;2023-07-02T11:09:28;3.7;;;2.7;;
61499;SDS011;47361;49.996;19.918;2023-07-02T11:11:28;3.4;;;2.6;;
61499;SDS011;47361;49.996;19.918;2023-07-02T11:12:28;3.4;;;2.6;;
61499;SDS011;47361;49.996;19.918;2023-07-02T11:13:28;3.4;;;2.6;;
61499;SDS011;47361;49.996;19.918;2023-07-02T11:15:35;3.4;;;2.6;;
61499;SDS011;47361;49.996;19.918;2023-07-02T11:16:28;3.3;;;2.5;;
61499;SDS011;47361;49.996;19.918;2023-07-02T11:17:28;3.3;;;2.5;;
61499;SDS011;47361;49.996;19.918;2023-07-02T11:18:30;3.3;;;2.5;;
61499;SDS011;47361;49.996;19.918;2023-07-02T11:21:28;3.5;;;2.3;;
61499;SDS011;47361;49.996;19.918;2023-07-02T11:26:34;3.6;;;2.2;;
61499;SDS011;47361;49.996;19.918;2023-07-02T11:28:29;3.6;;;2.2;;
61499;SDS011;47361;49.996;19.918;2023-07-02T11:29:28;3.6;;;2.2;;
61499;SDS011;47361;49.996;19.918;2023-07-02T11:30:28;3.6;;;2.2;;
61499;SDS011;47361;49.996;19.918;2023-07-02T11:31:28;3.3;;;2.0;;
61499;SDS011;47361;49.996;19.918;2023-07-02T11:34:28;3.3;;;2.0;;
61499;SDS011;47361;49.996;19.918;2023-07-02T11:36:28;4.1;;;2.4;;
61499;SDS011;47361;49.996;19.918;2023-07-02T11:37:28;4.1;;;2.4;;
61499;SDS011;47361;49.996;19.918;2023-07-02T11:39:28;4.1;;;2.4;;
61499;SDS011;47361;49.996;19.918;2023-07-02T11:40:28;4.1;;;2.4;;
61499;SDS011;47361;49.996;19.918;2023-07-02T11:41:36;2.5;;;1.9;;
61499;SDS011;47361;49.996;19.918;2023-07-02T11:42:29;2.5;;;1.9;;
61499;SDS011;47361;49.996;19.918;2023-07-02T11:44:28;2.5;;;1.9;;
61499;SDS011;47361;49.996;19.918;2023-07-02T11:47:28;2.3;;;2.0;;
61499;SDS011;47361;49.996;19.918;2023-07-02T11:48:28;2.3;;;2.0;;
61499;SDS011;47361;49.996;19.918;2023-07-02T11:49:28;2.3;;;2.0;;
61499;SDS011;47361;49.996;19.918;2023-07-02T11:50:28;2.3;;;2.0;;
61499;SDS011;47361;49.996;19.918;2023-07-02T11:51:28;3.3;;;2.1;;
61499;SDS011;47361;49.996;19.918;2023-07-02T11:52:28;3.3;;;2.1;;
61499;SDS011;47361;49.996;19.918;2023-07-02T11:53:28;3.3;;;2.1;;
61499;SDS011;47361;49.996;19.918;2023-07-02T11:54:28;3.3;;;2.1;;
61499;SDS011;47361;49.996;19.918;2023-07-02T11:56:28;3.3;;;1.9;;
61499;SDS011;47361;49.996;19.918;2023-07-02T11:57:28;3.3;;;1.9;;
61499;SDS011;47361;49.996;19.918;2023-07-02T11:59:28;3.3;;;1.9;;
61499;SDS011;47361;49.996;19.918;2023-07-02T12:03:28;3.3;;;1.8;;
61499;SDS011;47361;49.996;19.918;2023-07-02T12:05:28;3.3;;;1.8;;
61499;SDS011;47361;49.996;19.918;2023-07-02T12:06:28;2.0;;;1.8;;
61499;SDS011;47361;49.996;19.918;2023-07-02T12:07:28;2.0;;;1.8;;
61499;SDS011;47361;49.996;19.918;2023-07-02T12:08:28;2.0;;;1.8;;
61499;SDS011;47361;49.996;19.918;2023-07-02T12:10:28;2.0;;;1.8;;
61499;SDS011;47361;49.996;19.918;2023-07-02T12:15:28;2.1;;;1.9;;
61499;SDS011;47361;49.996;19.918;2023-07-02T12:16:28;2.4;;;1.8;;
61499;SDS011;47361;49.996;19.918;2023-07-02T12:17:28;2.4;;;1.8;;
61499;SDS011;47361;49.996;19.918;2023-07-02T12:20:28;2.4;;;1.8;;
61499;SDS011;47361;49.996;19.918;2023-07-02T12:21:28;2.5;;;2.2;;
61499;SDS011;47361;49.996;19.918;2023-07-02T12:24:28;2.5;;;2.2;;
61499;SDS011;47361;49.996;19.918;2023-07-02T12:25:28;2.5;;;2.2;;
61499;SDS011;47361;49.996;19.918;2023-07-02T12:27:28;5.4;;;2.6;;
61499;SDS011;47361;49.996;19.918;2023-07-02T12:31:28;2.4;;;1.9;;
61499;SDS011;47361;49.996;19.918;2023-07-02T12:32:28;2.4;;;1.9;;
61499;SDS011;47361;49.996;19.918;2023-07-02T12:36:28;2.3;;;1.7;;
61499;SDS011;47361;49.996;19.918;2023-07-02T12:37:28;2.3;;;1.7;;
61499;SDS011;47361;49.996;19.918;2023-07-02T12:39:28;2.3;;;1.7;;
61499;SDS011;47361;49.996;19.918;2023-07-02T12:45:28;2.6;;;1.6;;
61499;SDS011;47361;49.996;19.918;2023-07-02T12:46:28;2.2;;;1.8;;
61499;SDS011;47361;49.996;19.918;2023-07-02T12:49:28;2.2;;;1.8;;
61499;SDS011;47361;49.996;19.918;2023-07-02T12:50:28;2.2;;;1.8;;
61499;SDS011;47361;49.996;19.918;2023-07-02T12:54:28;2.7;;;1.7;;
61499;SDS011;47361;49.996;19.918;2023-07-02T12:58:28;2.2;;;1.8;;
61499;SDS011;47361;49.996;19.918;2023-07-02T13:05:28;2.3;;;1.8;;
61499;SDS011;47361;49.996;19.918;2023-07-02T13:06:28;2.3;;;1.8;;
61499;SDS011;47361;49.996;19.918;2023-07-02T13:07:28;2.3;;;1.8;;
61499;SDS011;47361;49.996;19.918;2023-07-02T13:08:28;2.3;;;1.8;;
61499;SDS011;47361;49.996;19.918;2023-07-02T13:09:28;2.3;;;1.8;;
61499;SDS011;47361;49.996;19.918;2023-07-02T13:11:28;3.3;;;1.9;;
61499;SDS011;47361;49.996;19.918;2023-07-02T13:12:28;3.3;;;1.9;;
61499;SDS011;47361;49.996;19.918;2023-07-02T13:14:28;3.3;;;1.9;;
61499;SDS011;47361;49.996;19.918;2023-07-02T13:17:28;3.2;;;1.8;;
61499;SDS011;47361;49.996;19.918;2023-07-02T13:18:28;3.2;;;1.8;;
61499;SDS011;47361;49.996;19.918;2023-07-02T13:19:28;3.2;;;1.8;;
61499;SDS011;47361;49.996;19.918;2023-07-02T13:20:28;2.8;;;2.0;;
61499;SDS011;47361;49.996;19.918;2023-07-02T13:21:28;2.8;;;2.0;;
61499;SDS011;47361;49.996;19.918;2023-07-02T13:22:28;2.8;;;2.0;;
61499;SDS011;47361;49.996;19.918;2023-07-02T13:23:28;2.8;;;2.0;;
61499;SDS011;47361;49.996;19.918;2023-07-02T13:28:28;3.0;;;1.8;;
61499;SDS011;47361;49.996;19.918;2023-07-02T13:30:28;2.6;;;1.6;;
61499;SDS011;47361;49.996;19.918;2023-07-02T13:34:28;2.6;;;1.6;;
61499;SDS011;47361;49.996;19.918;2023-07-02T13:36:28;3.5;;;1.8;;
61499;SDS011;47361;49.996;19.918;2023-07-02T13:37:28;3.5;;;1.8;;
61499;SDS011;47361;49.996;19.918;2023-07-02T13:38:28;3.5;;;1.8;;
61499;SDS011;47361;49.996;19.918;2023-07-02T13:39:28;3.5;;;1.8;;
61499;SDS011;47361;49.996;19.918;2023-07-02T13:40:28;2.1;;;1.7;;
61499;SDS011;47361;49.996;19.918;2023-07-02T13:42:28;2.1;;;1.7;;
61499;SDS011;47361;49.996;19.918;2023-07-02T13:43:28;2.1;;;1.7;;
61499;SDS011;47361;49.996;19.918;2023-07-02T13:45:28;2.6;;;1.9;;
61499;SDS011;47361;49.996;19.918;2023-07-02T13:46:28;2.6;;;1.9;;
61499;SDS011;47361;49.996;19.918;2023-07-02T13:48:28;2.6;;;1.9;;
61499;SDS011;47361;49.996;19.918;2023-07-02T13:50:28;2.8;;;1.5;;
61499;SDS011;47361;49.996;19.918;2023-07-02T13:52:28;2.8;;;1.5;;
61499;SDS011;47361;49.996;19.918;2023-07-02T13:53:28;2.8;;;1.5;;
61499;SDS011;47361;49.996;19.918;2023-07-02T13:54:28;2.8;;;1.5;;
61499;SDS011;47361;49.996;19.918;2023-07-02T13:55:28;3.3;;;1.5;;
61499;SDS011;47361;49.996;19.918;2023-07-02T13:56:28;3.3;;;1.5;;
61499;SDS011;47361;49.996;19.918;2023-07-02T13:57:28;3.3;;;1.5;;
61499;SDS011;47361;49.996;19.918;2023-07-02T13:58:45;3.3;;;1.5;;
61499;SDS011;47361;49.996;19.918;2023-07-02T13:59:28;3.3;;;1.5;;
61499;SDS011;47361;49.996;19.918;2023-07-02T14:00:28;3.4;;;1.1;;
61499;SDS011;47361;49.996;19.918;2023-07-02T14:01:28;3.4;;;1.1;;
61499;SDS011;47361;49.996;19.918;2023-07-02T14:03:28;3.4;;;1.1;;
61499;SDS011;47361;49.996;19.918;2023-07-02T14:05:28;5.2;;;1.0;;
61499;SDS011;47361;49.996;19.918;2023-07-02T14:07:28;5.2;;;1.0;;
61499;SDS011;47361;49.996;19.918;2023-07-02T14:09:28;5.2;;;1.0;;
61499;SDS011;47361;49.996;19.918;2023-07-02T14:10:28;2.5;;;0.9;;
61499;SDS011;47361;49.996;19.918;2023-07-02T14:12:28;2.5;;;0.9;;
61499;SDS011;47361;49.996;19.918;2023-07-02T14:13:28;2.5;;;0.9;;
61499;SDS011;47361;49.996;19.918;2023-07-02T14:14:28;2.5;;;0.9;;
61499;SDS011;47361;49.996;19.918;2023-07-02T14:18:28;5.5;;;1.2;;
61499;SDS011;47361;49.996;19.918;2023-07-02T14:19:28;5.5;;;1.2;;
61499;SDS011;47361;49.996;19.918;2023-07-02T14:21:28;1.4;;;0.9;;
61499;SDS011;47361;49.996;19.918;2023-07-02T14:23:28;1.4;;;0.9;;
61499;SDS011;47361;49.996;19.918;2023-07-02T14:24:28;1.4;;;0.9;;
61499;SDS011;47361;49.996;19.918;2023-07-02T14:25:28;1.8;;;0.7;;
61499;SDS011;47361;49.996;19.918;2023-07-02T14:26:28;1.8;;;0.7;;
61499;SDS011;47361;49.996;19.918;2023-07-02T14:27:28;1.8;;;0.7;;
61499;SDS011;47361;49.996;19.918;2023-07-02T14:29:28;1.8;;;0.7;;